createdAt,value
2023-01-17T00:00:06.402Z,5.90
2023-01-17T00:02:33.345Z,5.90
2023-01-17T00:05:18.807Z,5.80
2023-01-17T00:08:04.275Z,5.80
2023-01-17T00:10:31.276Z,5.70
2023-01-17T00:12:59.719Z,5.60
2023-01-17T00:15:27.915Z,5.50
2023-01-17T00:17:54.996Z,5.40
2023-01-17T00:20:41.510Z,5.40
2023-01-17T00:23:28.109Z,5.30
2023-01-17T00:26:04.019Z,5.20
2023-01-17T00:28:35.597Z,5.10
2023-01-17T00:31:03.381Z,5.10
2023-01-17T00:33:30.239Z,5.00
2023-01-17T00:35:57.822Z,5.00
2023-01-17T00:38:25.689Z,5.00
2023-01-17T00:40:52.810Z,5.00
2023-01-17T00:43:39.878Z,5.00
2023-01-17T00:46:25.687Z,4.90
2023-01-17T00:49:11.650Z,4.90
2023-01-17T00:51:57.394Z,4.90
2023-01-17T00:54:42.707Z,4.90
2023-01-17T00:57:28.166Z,4.90
2023-01-17T01:00:13.432Z,4.90
2023-01-17T01:02:58.725Z,5.00
2023-01-17T01:05:44.181Z,5.00
2023-01-17T01:08:40.430Z,4.90
2023-01-17T01:11:30.401Z,4.80
2023-01-17T01:14:15.968Z,4.80
2023-01-17T01:17:01.464Z,4.90
2023-01-17T01:19:46.720Z,4.90
2023-01-17T01:22:32.619Z,5.00
2023-01-17T01:25:18.019Z,5.00
2023-01-17T01:28:03.364Z,5.10
2023-01-17T01:30:48.738Z,5.10
2023-01-17T01:33:21.594Z,5.10
2023-01-17T01:35:52.479Z,5.10
2023-01-17T01:38:20.548Z,5.10
2023-01-17T01:40:54.570Z,5.10
2023-01-17T01:43:41.870Z,5.10
2023-01-17T01:46:10.256Z,5.20
2023-01-17T01:48:40.350Z,5.20
2023-01-17T01:51:08.856Z,5.20
2023-01-17T01:53:37.458Z,5.20
2023-01-17T01:56:06.310Z,5.30
2023-01-17T01:58:35.026Z,5.30
2023-01-17T02:01:02.115Z,5.30
2023-01-17T02:03:30.778Z,5.30
2023-01-17T02:06:01.081Z,5.30
2023-01-17T02:08:28.223Z,5.30
2023-01-17T02:10:56.286Z,5.30
2023-01-17T02:13:23.319Z,5.30
2023-01-17T02:15:50.312Z,5.30
2023-01-17T02:18:31.659Z,5.30
2023-01-17T02:21:18.891Z,5.30
2023-01-17T02:23:51.869Z,5.20
2023-01-17T02:26:21.859Z,5.20
2023-01-17T02:29:07.304Z,5.20
2023-01-17T02:31:37.336Z,5.20
2023-01-17T02:34:10.668Z,5.20
2023-01-17T02:36:42.313Z,5.20
2023-01-17T02:39:09.296Z,5.20
2023-01-17T02:41:37.626Z,5.10
2023-01-17T02:44:04.974Z,5.10
2023-01-17T02:46:31.936Z,5.10
2023-01-17T02:49:00.540Z,5.10
2023-01-17T02:51:46.312Z,5.10
2023-01-17T02:54:39.279Z,5.10
2023-01-17T02:57:12.176Z,5.10
2023-01-17T02:59:49.515Z,5.10
2023-01-17T03:02:16.561Z,5.00
2023-01-17T03:04:50.091Z,5.00
2023-01-17T03:07:19.592Z,5.00
2023-01-17T03:09:48.765Z,5.00
2023-01-17T03:12:16.028Z,5.00
2023-01-17T03:14:43.084Z,4.90
2023-01-17T03:17:09.933Z,4.90
2023-01-17T03:19:36.843Z,4.90
2023-01-17T03:22:03.796Z,4.90
2023-01-17T03:24:30.837Z,4.80
2023-01-17T03:26:57.782Z,4.80
2023-01-17T03:29:24.751Z,4.80
2023-01-17T03:31:51.655Z,4.80
2023-01-17T03:34:18.778Z,4.70
2023-01-17T03:36:45.896Z,4.70
2023-01-17T03:39:12.823Z,4.60
2023-01-17T03:41:39.785Z,4.60
2023-01-17T03:44:06.707Z,4.50
2023-01-17T03:46:33.642Z,4.50
2023-01-17T03:49:00.584Z,4.40
2023-01-17T03:51:27.635Z,4.40
2023-01-17T03:53:54.580Z,4.40
2023-01-17T03:56:21.965Z,4.30
2023-01-17T03:58:48.984Z,4.30
2023-01-17T04:01:15.975Z,4.30
2023-01-17T04:03:42.963Z,4.20
2023-01-17T04:06:09.898Z,4.10
2023-01-17T04:08:36.812Z,4.10
2023-01-17T04:11:03.857Z,4.00
2023-01-17T04:13:30.730Z,4.00
2023-01-17T04:15:57.687Z,4.00
2023-01-17T04:18:25.271Z,3.90
2023-01-17T04:20:52.354Z,3.80
2023-01-17T04:23:19.368Z,3.80
2023-01-17T04:25:46.287Z,3.80
2023-01-17T04:28:13.382Z,3.80
2023-01-17T04:30:40.718Z,3.70
2023-01-17T04:33:07.643Z,3.70
2023-01-17T04:35:34.687Z,3.70
2023-01-17T04:38:01.697Z,3.70
2023-01-17T04:40:29.821Z,3.70
2023-01-17T04:42:57.876Z,3.70
2023-01-17T04:45:24.778Z,3.60
2023-01-17T04:47:51.770Z,3.60
2023-01-17T04:50:22.453Z,3.60
2023-01-17T04:52:49.416Z,3.50
2023-01-17T04:55:16.484Z,3.50
2023-01-17T04:57:43.742Z,3.50
2023-01-17T05:00:11.874Z,3.50
2023-01-17T05:02:39.056Z,3.50
2023-01-17T05:05:07.141Z,3.50
2023-01-17T05:07:35.764Z,3.50
2023-01-17T05:10:03.167Z,3.40
2023-01-17T05:12:30.114Z,3.40
2023-01-17T05:14:56.971Z,3.40
2023-01-17T05:17:23.906Z,3.40
2023-01-17T05:19:51.039Z,3.40
2023-01-17T05:22:17.997Z,3.30
2023-01-17T05:24:45.962Z,3.30
2023-01-17T05:27:13.250Z,3.30
2023-01-17T05:29:40.561Z,3.30
2023-01-17T05:32:07.711Z,3.30
2023-01-17T05:34:43.674Z,3.30
2023-01-17T05:37:11.893Z,3.20
2023-01-17T05:39:41.956Z,3.20
2023-01-17T05:42:11.585Z,3.20
2023-01-17T05:44:41.537Z,3.20
2023-01-17T05:47:13.464Z,3.10
2023-01-17T05:52:24.340Z,3.10
2023-01-17T06:00:13.945Z,3.00
2023-01-17T06:02:45.297Z,3.00
2023-01-17T06:07:54.134Z,2.90
2023-01-17T06:10:22.862Z,2.90
2023-01-17T06:12:50.569Z,2.90
2023-01-17T06:31:29.924Z,2.80
2023-01-17T07:58:26.819Z,1.80
2023-01-17T08:11:48.119Z,1.90
2023-01-17T08:17:04.592Z,1.90
2023-01-17T08:22:17.016Z,1.90
2023-01-17T08:24:45.845Z,1.90
2023-01-17T08:29:53.950Z,1.90
2023-01-17T08:32:21.851Z,2.00
2023-01-17T08:34:49.065Z,2.00
2023-01-17T08:37:16.976Z,2.00
2023-01-17T08:39:44.838Z,2.10
2023-01-17T08:42:12.996Z,2.10
2023-01-17T08:44:40.214Z,2.10
2023-01-17T08:47:07.164Z,2.10
2023-01-17T08:49:34.369Z,2.20
2023-01-17T08:52:02.332Z,2.20
2023-01-17T08:54:29.499Z,2.20
2023-01-17T08:56:56.845Z,2.30
2023-01-17T08:59:24.211Z,2.30
2023-01-17T09:01:52.996Z,2.40
2023-01-17T09:04:20.010Z,2.40
2023-01-17T09:06:48.617Z,2.50
2023-01-17T09:09:17.033Z,2.50
2023-01-17T09:11:44.100Z,2.50
2023-01-17T09:14:14.482Z,2.60
2023-01-17T09:16:41.599Z,2.60
2023-01-17T09:19:10.324Z,2.70
2023-01-17T09:21:37.466Z,2.70
2023-01-17T09:24:04.548Z,2.80
2023-01-17T09:26:32.611Z,2.80
2023-01-17T09:29:00.756Z,2.90
2023-01-17T09:31:28.824Z,3.00
2023-01-17T09:33:56.595Z,3.00
2023-01-17T09:36:24.315Z,3.10
2023-01-17T09:38:56.541Z,3.10
2023-01-17T09:41:23.509Z,3.20
2023-01-17T09:44:01.783Z,3.30
2023-01-17T09:46:40.199Z,3.30
2023-01-17T09:49:08.885Z,3.40
2023-01-17T09:51:36.941Z,3.40
2023-01-17T09:54:05.421Z,3.50
2023-01-17T09:56:36.993Z,3.50
2023-01-17T09:59:10.269Z,3.50
2023-01-17T10:01:43.579Z,3.60
2023-01-17T10:04:13.781Z,3.60
2023-01-17T10:06:59.253Z,3.70
2023-01-17T10:09:29.449Z,3.80
2023-01-17T10:12:34.986Z,3.80
2023-01-17T10:15:14.979Z,3.90
2023-01-17T10:17:54.638Z,3.90
2023-01-17T10:20:34.344Z,4.00
2023-01-17T10:23:05.416Z,4.00
2023-01-17T10:25:33.388Z,4.00
2023-01-17T10:28:04.224Z,4.00
2023-01-17T10:30:36.989Z,4.10
2023-01-17T10:33:12.011Z,4.10
2023-01-17T10:35:44.525Z,4.20
2023-01-17T10:38:13.488Z,4.20
2023-01-17T10:40:44.862Z,4.20
2023-01-17T10:43:28.384Z,4.30
2023-01-17T10:45:56.374Z,4.30
2023-01-17T10:48:35.854Z,4.40
2023-01-17T10:51:15.454Z,4.40
2023-01-17T10:54:01.922Z,4.50
2023-01-17T10:56:30.968Z,4.50
2023-01-17T10:59:14.740Z,4.60
2023-01-17T11:01:41.924Z,4.60
2023-01-17T11:04:15.939Z,4.60
2023-01-17T11:06:57.875Z,4.70
2023-01-17T11:09:37.201Z,4.70
2023-01-17T11:12:04.630Z,4.80
2023-01-17T11:14:36.260Z,4.80
2023-01-17T11:17:04.549Z,4.80
2023-01-17T11:19:35.689Z,4.80
2023-01-17T11:22:05.100Z,4.80
2023-01-17T11:24:36.527Z,4.80
2023-01-17T11:27:05.660Z,4.90
2023-01-17T11:29:39.228Z,5.00
2023-01-17T11:32:21.760Z,5.00
2023-01-17T11:35:07.529Z,5.10
2023-01-17T11:37:35.793Z,5.20
2023-01-17T11:40:10.217Z,5.30
2023-01-17T11:42:38.610Z,5.40
2023-01-17T11:45:25.511Z,5.50
2023-01-17T11:48:13.955Z,5.60
2023-01-17T11:50:42.568Z,5.60
2023-01-17T11:53:16.868Z,5.70
2023-01-17T11:55:55.995Z,5.80
2023-01-17T12:04:23.315Z,6.10
2023-01-17T12:06:58.150Z,6.20
2023-01-17T12:09:44.289Z,6.30
2023-01-17T12:12:47.607Z,6.40
2023-01-17T12:15:20.577Z,6.50
2023-01-17T12:17:59.063Z,6.60
2023-01-17T12:20:37.814Z,6.70
2023-01-17T12:23:23.605Z,6.80
2023-01-17T12:26:20.855Z,6.90
2023-01-17T12:29:01.413Z,7.00
2023-01-17T12:31:28.326Z,7.20
2023-01-17T12:34:15.515Z,7.20
2023-01-17T12:36:47.915Z,7.30
2023-01-17T12:39:16.963Z,7.40
2023-01-17T12:41:59.588Z,7.50
2023-01-17T12:44:35.105Z,7.60
2023-01-17T12:47:03.685Z,7.60
2023-01-17T12:49:48.397Z,7.70
2023-01-17T12:52:23.169Z,7.80
2023-01-17T12:54:53.421Z,7.90
2023-01-17T12:57:23.256Z,8.00
2023-01-17T12:59:56.294Z,8.10
2023-01-17T13:02:23.235Z,8.10
2023-01-17T13:04:59.238Z,8.20
2023-01-17T13:07:26.252Z,8.20
2023-01-17T13:10:02.709Z,8.20
2023-01-17T13:12:31.599Z,8.30
2023-01-17T13:14:58.962Z,8.40
2023-01-17T13:17:34.820Z,8.40
2023-01-17T13:20:01.673Z,8.50
2023-01-17T13:22:29.036Z,8.50
2023-01-17T13:25:05.063Z,8.50
2023-01-17T13:27:32.016Z,8.50
2023-01-17T13:30:17.592Z,8.50
2023-01-17T13:32:50.566Z,8.60
2023-01-17T13:35:26.717Z,8.50
2023-01-17T13:37:53.803Z,8.50
2023-01-17T13:40:30.046Z,8.60
2023-01-17T13:42:59.944Z,8.70
2023-01-17T13:45:37.741Z,8.80
2023-01-17T13:48:14.811Z,9.00
2023-01-17T13:50:41.746Z,9.00
2023-01-17T13:53:27.267Z,9.10
2023-01-17T13:56:00.044Z,9.20
2023-01-17T13:58:28.411Z,9.00
2023-01-17T14:00:55.902Z,9.00
2023-01-17T14:03:41.760Z,9.10
2023-01-17T14:06:27.457Z,9.10
2023-01-17T14:08:54.423Z,9.30
2023-01-17T14:11:22.315Z,9.40
2023-01-17T14:13:51.878Z,9.50
2023-01-17T14:16:21.861Z,9.50
2023-01-17T14:18:49.244Z,9.40
2023-01-17T14:21:21.447Z,9.40
2023-01-17T14:23:50.597Z,9.30
2023-01-17T14:26:37.837Z,9.40
2023-01-17T14:29:23.677Z,9.40
2023-01-17T14:31:59.372Z,9.40
2023-01-17T14:34:26.436Z,9.50
2023-01-17T14:37:03.677Z,9.40
2023-01-17T14:39:30.525Z,9.30
2023-01-17T14:41:58.491Z,9.30
2023-01-17T14:44:25.552Z,9.30
2023-01-17T14:46:52.494Z,9.30
2023-01-17T14:49:24.342Z,9.30
2023-01-17T14:52:04.807Z,9.30
2023-01-17T14:54:31.857Z,9.20
2023-01-17T14:57:17.537Z,9.20
2023-01-17T14:59:44.581Z,9.10
2023-01-17T15:02:15.471Z,9.10
2023-01-17T15:04:42.980Z,9.00
2023-01-17T15:07:14.741Z,8.90
2023-01-17T15:09:42.426Z,8.80
2023-01-17T15:12:16.254Z,8.60
2023-01-17T15:14:44.781Z,8.50
2023-01-17T15:17:24.680Z,8.40
2023-01-17T15:19:54.040Z,8.30
2023-01-17T15:22:21.181Z,8.20
2023-01-17T15:24:48.230Z,8.10
2023-01-17T15:27:17.039Z,7.90
2023-01-17T15:29:47.047Z,7.80
2023-01-17T15:32:19.509Z,7.70
2023-01-17T15:34:48.196Z,7.50
2023-01-17T15:37:28.787Z,7.40
2023-01-17T15:40:03.280Z,7.20
2023-01-17T15:42:31.614Z,7.10
2023-01-17T15:45:01.908Z,6.90
2023-01-17T15:47:36.261Z,6.80
2023-01-17T15:50:24.803Z,6.70
2023-01-17T15:52:53.127Z,6.50
2023-01-17T15:55:24.225Z,6.40
2023-01-17T15:57:51.151Z,6.20
2023-01-17T16:00:22.008Z,6.10
2023-01-17T16:02:55.344Z,5.90
2023-01-17T16:05:22.939Z,5.80
2023-01-17T16:07:50.111Z,5.70
2023-01-17T16:10:18.875Z,5.50
2023-01-17T16:12:49.862Z,5.40
2023-01-17T16:15:18.378Z,5.20
2023-01-17T16:17:47.658Z,5.10
2023-01-17T16:20:21.252Z,5.10
2023-01-17T16:22:48.859Z,5.00
2023-01-17T16:25:17.802Z,4.90
2023-01-17T16:27:44.766Z,4.80
2023-01-17T16:30:12.718Z,4.70
2023-01-17T16:32:39.659Z,4.60
2023-01-17T16:35:07.223Z,4.50
2023-01-17T16:37:34.078Z,4.40
2023-01-17T16:40:01.010Z,4.30
2023-01-17T16:42:28.636Z,4.20
2023-01-17T16:44:55.671Z,4.20
2023-01-17T16:47:22.769Z,4.10
2023-01-17T16:49:49.610Z,4.00
2023-01-17T16:52:16.506Z,3.90
2023-01-17T16:54:43.394Z,3.80
2023-01-17T16:57:10.334Z,3.70
2023-01-17T16:59:50.192Z,3.70
2023-01-17T17:02:18.844Z,3.60
2023-01-17T17:04:45.813Z,3.50
2023-01-17T17:07:12.725Z,3.40
2023-01-17T17:09:39.554Z,3.40
2023-01-17T17:12:06.801Z,3.30
2023-01-17T17:14:33.660Z,3.30
2023-01-17T17:17:03.593Z,3.20
2023-01-17T17:19:30.543Z,3.10
2023-01-17T17:22:02.196Z,3.10
2023-01-17T17:24:29.179Z,3.00
2023-01-17T17:26:56.166Z,3.00
2023-01-17T17:29:23.030Z,2.90
2023-01-17T17:31:49.900Z,2.90
2023-01-17T17:34:19.447Z,2.70
2023-01-17T17:36:46.424Z,2.60
2023-01-17T17:39:15.092Z,2.50
2023-01-17T17:41:42.791Z,2.50
2023-01-17T17:44:09.868Z,2.50
2023-01-17T17:46:37.388Z,2.40
2023-01-17T17:49:06.030Z,2.40
2023-01-17T17:51:37.410Z,2.40
2023-01-17T17:54:06.056Z,2.40
2023-01-17T17:56:33.605Z,2.30
2023-01-17T17:59:01.075Z,2.30
2023-01-17T18:01:28.363Z,2.20
2023-01-17T18:03:57.110Z,2.20
2023-01-17T18:06:24.201Z,2.20
2023-01-17T18:08:52.346Z,2.10
2023-01-17T18:11:24.339Z,2.00
2023-01-17T18:13:51.872Z,2.00
2023-01-17T18:16:23.136Z,2.00
2023-01-17T18:18:51.412Z,2.00
2023-01-17T18:21:24.520Z,1.90
2023-01-17T18:24:01.974Z,2.00
2023-01-17T18:26:30.620Z,2.00
2023-01-17T18:28:58.212Z,2.00
2023-01-17T18:31:27.278Z,2.00
2023-01-17T18:33:54.994Z,1.90
2023-01-17T18:36:23.524Z,1.90
2023-01-17T18:38:50.774Z,1.90
2023-01-17T18:41:18.883Z,1.80
2023-01-17T18:43:45.792Z,1.70
2023-01-17T18:46:12.844Z,1.70
2023-01-17T18:48:40.036Z,1.60
2023-01-17T18:51:10.973Z,1.60
2023-01-17T18:53:38.392Z,1.60
2023-01-17T18:56:06.779Z,1.50
2023-01-17T18:58:35.931Z,1.60
2023-01-17T19:01:13.562Z,1.50
2023-01-17T19:03:41.599Z,1.50
2023-01-17T19:06:10.835Z,1.50
2023-01-17T19:08:37.695Z,1.40
2023-01-17T19:11:04.905Z,1.40
2023-01-17T19:13:35.700Z,1.40
2023-01-17T19:16:03.970Z,1.30
2023-01-17T19:18:31.364Z,1.30
2023-01-17T19:21:18.973Z,1.30
2023-01-17T19:23:45.837Z,1.40
2023-01-17T19:26:20.303Z,1.30
2023-01-17T19:28:48.272Z,1.20
2023-01-17T19:31:16.456Z,1.20
2023-01-17T19:33:44.293Z,1.20
2023-01-17T19:36:17.359Z,1.20
2023-01-17T19:38:55.232Z,1.20
2023-01-17T19:41:30.826Z,1.30
2023-01-17T19:43:58.695Z,1.30
2023-01-17T19:46:27.579Z,1.30
2023-01-17T19:48:55.381Z,1.40
2023-01-17T19:51:22.730Z,1.30
2023-01-17T19:53:50.023Z,1.30
2023-01-17T19:56:20.936Z,1.30
2023-01-17T19:58:48.289Z,1.30
2023-01-17T20:01:16.528Z,1.20
2023-01-17T20:03:47.048Z,1.30
2023-01-17T20:06:14.799Z,1.20
2023-01-17T20:08:41.719Z,1.30
2023-01-17T20:11:10.109Z,1.20
2023-01-17T20:13:37.434Z,1.20
2023-01-17T20:16:08.751Z,1.20
2023-01-17T20:18:36.135Z,1.20
2023-01-17T20:21:07.513Z,1.20
2023-01-17T20:23:38.972Z,1.20
2023-01-17T20:26:06.328Z,1.20
2023-01-17T20:28:34.071Z,1.20
2023-01-17T20:31:05.158Z,1.20
2023-01-17T20:33:39.172Z,1.20
2023-01-17T20:39:31.767Z,1.20
2023-01-17T20:42:03.437Z,1.30
2023-01-17T20:44:37.853Z,1.30
2023-01-17T20:47:04.887Z,1.30
2023-01-17T20:49:37.695Z,1.30
2023-01-17T20:52:06.175Z,1.30
2023-01-17T20:54:33.321Z,1.20
2023-01-17T20:57:00.163Z,1.20
2023-01-17T21:02:19.061Z,1.20
2023-01-17T21:04:46.047Z,1.20
2023-01-17T21:07:16.130Z,1.20
2023-01-17T21:09:43.284Z,1.20
2023-01-17T21:12:12.317Z,1.20
2023-01-17T21:14:42.690Z,1.20
2023-01-17T21:17:12.482Z,1.20
2023-01-17T21:19:45.975Z,1.20
2023-01-17T21:22:16.841Z,1.20
2023-01-17T21:25:09.601Z,1.20
2023-01-17T21:27:49.706Z,1.20
2023-01-17T21:30:34.516Z,1.40
2023-01-17T21:33:22.305Z,1.60
2023-01-17T21:35:52.100Z,1.90
2023-01-17T21:44:30.095Z,2.40
2023-01-17T21:47:00.365Z,2.50
2023-01-17T21:49:37.127Z,2.60
2023-01-17T21:52:07.959Z,2.60
2023-01-17T21:54:53.314Z,2.70
2023-01-17T22:00:44.116Z,2.80
2023-01-17T22:03:13.687Z,2.80
2023-01-17T22:05:49.744Z,2.80
2023-01-17T22:14:49.455Z,2.80
2023-01-17T22:17:27.101Z,2.80
2023-01-17T22:26:42.505Z,2.80
2023-01-17T22:32:37.151Z,2.80
2023-01-17T22:35:14.737Z,2.70
2023-01-17T22:40:57.482Z,2.70
2023-01-17T22:43:39.337Z,2.70
2023-01-17T22:56:17.324Z,2.60
2023-01-17T22:58:48.902Z,2.50
2023-01-17T23:01:20.303Z,2.50
2023-01-17T23:03:52.088Z,2.50
2023-01-17T23:06:29.060Z,2.50
2023-01-17T23:08:57.306Z,2.50
2023-01-17T23:11:39.170Z,2.40
2023-01-17T23:14:06.193Z,2.40
2023-01-17T23:16:51.753Z,2.40
2023-01-17T23:19:24.525Z,2.40
2023-01-17T23:22:11.934Z,2.40
2023-01-17T23:24:48.404Z,2.40
2023-01-17T23:27:41.352Z,2.30
2023-01-17T23:30:08.560Z,2.30
2023-01-17T23:32:35.732Z,2.30
2023-01-17T23:35:02.668Z,2.30
2023-01-17T23:37:50.484Z,2.30
2023-01-17T23:40:17.846Z,2.20
2023-01-17T23:43:03.589Z,2.20
2023-01-17T23:45:30.767Z,2.20
2023-01-17T23:47:57.748Z,2.10
2023-01-17T23:50:24.682Z,2.10
2023-01-17T23:52:51.555Z,2.10
2023-01-17T23:55:18.489Z,2.10
2023-01-17T23:57:45.372Z,2.10
